Time;durP1;ratioP1;P1;durP2;ratioP2;P2;SDS_P1;SDS_P2;PMS_P1;PMS_P2;Temp;Humidity;BMP_temperature;BMP_pressure;BME280_temperature;BME280_humidity;BME280_pressure;Samples;Min_cycle;Max_cycle;Signal;HPM_P1;HPM_P2
2022/01/15 00:01:11;;;;;;;70.47;63.45;;;;;;;4.35;77.76;102677.44;5049350;28;20589;-72
2022/01/15 00:03:37;;;;;;;75.53;65.45;;;;;;;4.58;78.27;102687.06;5051166;28;20049;-70
2022/01/15 00:06:04;;;;;;;71.93;63.75;;;;;;;4.36;79.60;102680.91;5027385;28;20111;-70
2022/01/15 00:08:30;;;;;;;61.30;55.25;;;;;;;4.46;79.73;102680.09;5028329;28;20045;-71
2022/01/15 00:10:57;;;;;;;60.88;54.40;;;;;;;4.40;79.00;102672.25;5028516;28;20102;-70
2022/01/15 00:13:27;;;;;;;62.60;57.35;;;;;;;4.20;80.42;102672.16;5050561;28;20049;-70
2022/01/15 00:16:04;;;;;;;60.45;54.92;;;;;;;4.62;78.15;102670.63;5039020;28;20410;-70
2022/01/15 00:18:41;;;;;;;63.78;58.15;;;;;;;4.52;78.50;102677.50;5034012;28;20053;-70
2022/01/15 00:21:08;;;;;;;59.80;54.95;;;;;;;4.56;77.48;102678.38;5046855;28;20124;-70
2022/01/15 00:23:34;;;;;;;63.88;58.03;;;;;;;4.72;78.39;102668.06;5044212;28;20174;-64
2022/01/15 00:26:01;;;;;;;67.90;62.17;;;;;;;4.66;80.05;102678.41;5031009;28;20077;-68
2022/01/15 00:28:28;;;;;;;65.20;58.60;;;;;;;4.46;78.61;102674.88;5035006;28;20574;-68
2022/01/15 00:30:55;;;;;;;62.88;57.63;;;;;;;4.51;77.71;102677.50;5058266;28;20040;-68
2022/01/15 00:33:21;;;;;;;61.60;53.72;;;;;;;4.31;77.70;102672.22;5050730;28;20041;-68
2022/01/15 00:35:47;;;;;;;68.15;61.55;;;;;;;4.16;78.01;102687.72;5034161;28;20045;-67
2022/01/15 00:38:14;;;;;;;80.00;73.18;;;;;;;4.04;78.14;102690.22;5025594;28;20037;-69
2022/01/15 00:40:40;;;;;;;95.75;88.13;;;;;;;4.08;76.48;102684.19;5024439;28;20049;-68
2022/01/15 00:43:06;;;;;;;164.50;154.60;;;;;;;3.89;76.63;102676.31;5033322;28;20065;-68
2022/01/15 00:45:34;;;;;;;156.85;147.80;;;;;;;3.51;76.37;102689.88;5046034;28;20041;-68
2022/01/15 00:48:02;;;;;;;110.35;102.40;;;;;;;3.53;77.40;102689.00;5034097;28;20057;-68
2022/01/15 00:50:29;;;;;;;66.63;60.25;;;;;;;3.09;79.71;102691.19;5034134;28;20045;-68
2022/01/15 00:52:55;;;;;;;49.50;44.75;;;;;;;3.06;79.69;102701.53;5050113;28;20463;-68
2022/01/15 00:55:22;;;;;;;56.45;50.60;;;;;;;3.07;80.01;102699.81;5049998;28;20509;-68
2022/01/15 00:57:48;;;;;;;56.92;51.13;;;;;;;3.26;80.25;102692.22;5049721;28;20045;-68
2022/01/15 01:00:18;;;;;;;62.47;56.20;;;;;;;3.15;80.57;102690.38;5040502;28;20045;-68
2022/01/15 01:02:47;;;;;;;64.27;57.93;;;;;;;3.29;79.54;102688.78;5041593;28;20048;-68
2022/01/15 01:05:14;;;;;;;65.65;59.30;;;;;;;3.35;79.70;102699.22;5069248;28;20040;-68
2022/01/15 01:07:40;;;;;;;69.70;64.45;;;;;;;3.53;79.37;102690.72;5070546;28;20040;-68
2022/01/15 01:10:24;;;;;;;67.97;61.40;;;;;;;3.46;79.92;102686.34;5050784;28;20090;-68
2022/01/15 01:13:14;;;;;;;72.43;64.38;;;;;;;3.43;79.00;102680.28;5049815;28;20045;-68
2022/01/15 01:22:13;;;;;;;68.20;60.85;;;;;;;3.38;80.03;102681.97;4992794;28;20046;-68
2022/01/15 01:24:29;;;;;;;69.75;63.25;;;;;;;3.25;80.27;102681.84;4988516;28;20518;-68
2022/01/15 01:26:59;;;;;;;73.18;66.43;;;;;;;2.90;80.05;102676.31;5021695;28;20049;-68
2022/01/15 01:29:47;;;;;;;64.03;56.88;;;;;;;3.02;81.50;102678.16;5062156;28;20045;-68
2022/01/15 01:32:29;;;;;;;75.55;67.75;;;;;;;3.05;80.98;102688.56;5043178;28;20505;-68
2022/01/15 01:35:04;;;;;;;112.50;103.82;;;;;;;2.97;82.49;102685.88;5034127;28;20049;-68
2022/01/15 01:37:36;;;;;;;57.78;51.67;;;;;;;3.36;80.85;102685.41;5030338;28;20041;-68
2022/01/15 01:40:17;;;;;;;58.15;48.58;;;;;;;3.50;80.34;102681.22;5030975;28;20056;-68
2022/01/15 01:42:53;;;;;;;;;;;;;;;3.49;79.66;102674.28;5047395;28;20174;-68
2022/01/15 01:45:19;;;;;;;78.78;72.15;;;;;;;3.36;79.40;102669.84;5046521;28;19920;-68
2022/01/15 01:47:46;;;;;;;79.22;72.60;;;;;;;3.32;79.60;102673.28;5049213;28;20045;-68
2022/01/15 01:50:17;;;;;;;71.25;64.20;;;;;;;3.34;80.11;102666.38;5049947;28;20535;-68
2022/01/15 01:52:46;;;;;;;65.45;59.10;;;;;;;3.31;80.42;102676.72;5049892;28;20068;-68
2022/01/15 01:55:13;;;;;;;68.03;62.63;;;;;;;3.26;80.52;102678.38;5050138;28;20414;-68
2022/01/15 01:57:40;;;;;;;76.35;70.22;;;;;;;3.21;80.99;102668.00;5048565;28;20101;-68
2022/01/15 02:00:10;;;;;;;65.45;59.67;;;;;;;3.47;79.47;102656.97;5051839;28;20091;-68
2022/01/15 02:02:36;;;;;;;80.25;72.90;;;;;;;3.53;79.50;102657.00;5055934;28;20413;-68
2022/01/15 02:05:03;;;;;;;70.18;62.97;;;;;;;3.37;80.08;102650.81;5068972;28;20052;-68
2022/01/15 02:07:31;;;;;;;65.03;58.67;;;;;;;3.51;80.31;102662.16;5060454;28;20045;-68
2022/01/15 02:09:58;;;;;;;79.53;67.50;;;;;;;3.28;81.48;102650.75;5029007;28;20071;-67
2022/01/15 02:12:25;;;;;;;82.53;53.67;;;;;;;3.17;81.32;102650.69;5041758;28;20040;-68
2022/01/15 02:14:51;;;;;;;63.30;53.58;;;;;;;3.41;80.30;102648.28;5055274;28;20146;-68
2022/01/15 02:17:20;;;;;;;79.10;72.68;;;;;;;3.30;81.46;102646.44;5030123;28;20049;-68
2022/01/15 02:20:09;;;;;;;67.50;60.88;;;;;;;3.16;82.64;102645.47;5030100;28;20072;-68
2022/01/15 02:25:19;;;;;;;67.18;60.17;;;;;;;3.57;80.20;102641.50;5033534;28;20091;-68
2022/01/15 02:27:45;;;;;;;59.00;53.08;;;;;;;3.72;80.00;102639.00;5054867;28;20099;-68
2022/01/15 02:30:13;;;;;;;65.45;58.97;;;;;;;3.80;79.06;102647.72;5056285;28;20398;-68
2022/01/15 02:32:40;;;;;;;63.58;57.70;;;;;;;3.43;80.63;102643.13;5057731;28;20044;-68
2022/01/15 02:35:12;;;;;;;64.35;53.13;;;;;;;3.55;80.07;102627.63;5068837;28;20040;-68
2022/01/15 02:37:38;;;;;;;92.30;84.35;;;;;;;3.28;81.84;102638.69;5056449;28;20041;-68
2022/01/15 02:40:09;;;;;;;66.97;60.35;;;;;;;3.28;81.51;102636.09;5048218;28;20048;-68
2022/01/15 02:42:35;;;;;;;59.08;54.22;;;;;;;3.34;81.18;102646.50;5052273;28;20064;-69
2022/01/15 02:45:03;;;;;;;63.55;57.40;;;;;;;3.47;81.12;102646.59;5045113;28;20467;-68
2022/01/15 02:50:14;;;;;;;62.25;56.30;;;;;;;3.75;78.97;102633.81;5041802;28;20179;-68
2022/01/15 02:52:40;;;;;;;66.65;60.10;;;;;;;3.77;78.72;102628.66;5047143;28;20069;-68
2022/01/15 02:55:08;;;;;;;67.05;60.83;;;;;;;3.89;78.08;102636.50;5034958;28;20559;-68
2022/01/15 02:57:34;;;;;;;80.72;70.43;;;;;;;3.97;77.41;102640.00;5044164;28;20122;-69
2022/01/15 03:00:00;;;;;;;67.72;60.67;;;;;;;3.89;77.49;102632.19;5051274;28;20048;-69
2022/01/15 03:02:31;;;;;;;89.18;81.40;;;;;;;3.80;77.22;102632.16;5054238;28;20400;-68
2022/01/15 03:04:57;;;;;;;92.65;82.88;;;;;;;3.77;76.96;102626.91;5053335;28;20091;-68
2022/01/15 03:07:25;;;;;;;90.93;82.78;;;;;;;3.66;76.66;102622.53;5034975;28;20567;-68
2022/01/15 03:09:51;;;;;;;155.40;146.48;;;;;;;3.58;76.63;102625.09;5035606;28;20041;-68
2022/01/15 03:12:18;;;;;;;124.72;115.65;;;;;;;3.48;75.94;102625.84;5044066;28;20049;-68
2022/01/15 03:14:47;;;;;;;163.90;153.70;;;;;;;3.42;76.14;102623.22;5057974;28;20041;-68
2022/01/15 03:17:13;;;;;;;189.70;179.13;;;;;;;3.34;76.12;102622.28;5032094;28;20045;-69
2022/01/15 03:19:39;;;;;;;171.95;161.77;;;;;;;3.31;75.69;102623.13;5028513;28;20115;-68
2022/01/15 03:22:06;;;;;;;166.07;155.80;;;;;;;3.24;75.42;102625.66;5037139;28;20559;-68
2022/01/15 03:24:34;;;;;;;108.68;100.70;;;;;;;3.23;75.01;102623.91;5047846;28;20045;-68
2022/01/15 03:27:00;;;;;;;99.00;91.97;;;;;;;3.06;75.17;102620.31;5054427;28;20106;-68
2022/01/15 03:29:26;;;;;;;125.75;116.68;;;;;;;3.02;75.00;102613.38;5036455;28;20111;-68
2022/01/15 03:31:53;;;;;;;138.43;130.35;;;;;;;2.93;74.85;102617.63;5028254;28;20041;-68
2022/01/15 03:34:19;;;;;;;109.40;102.25;;;;;;;3.02;73.66;102626.34;5041224;28;20041;-68
2022/01/15 03:36:45;;;;;;;127.65;117.40;;;;;;;2.72;75.72;102617.41;5046898;28;20494;-68
2022/01/15 03:39:12;;;;;;;134.93;125.40;;;;;;;2.59;76.72;102601.72;5048229;28;20304;-68
2022/01/15 03:41:39;;;;;;;119.80;112.47;;;;;;;2.51;76.13;102596.47;5045854;28;20095;-68
2022/01/15 03:44:06;;;;;;;130.13;120.00;;;;;;;2.58;75.98;102598.28;5047836;28;20072;-69
2022/01/15 03:46:32;;;;;;;113.65;103.38;;;;;;;2.58;76.72;102600.84;5050499;28;20342;-68
2022/01/15 03:48:59;;;;;;;80.18;70.53;;;;;;;2.56;77.71;102609.44;5065927;28;20214;-68
2022/01/15 03:51:25;;;;;;;79.93;72.40;;;;;;;2.60;78.27;102600.84;5046691;28;20045;-68
2022/01/15 03:53:51;;;;;;;79.13;57.42;;;;;;;2.43;80.57;102598.09;5035701;28;20551;-68
2022/01/15 03:56:18;;;;;;;114.20;60.30;;;;;;;2.49;80.69;102592.09;5034444;28;20041;-68
2022/01/15 03:58:45;;;;;;;217.23;87.57;;;;;;;2.26;82.16;102604.78;5039634;28;20494;-68
2022/01/15 04:01:12;;;;;;;141.30;72.53;;;;;;;2.40;82.08;102598.91;5046346;28;20406;-68
2022/01/15 04:03:39;;;;;;;60.83;54.58;;;;;;;2.52;81.55;102593.00;5041826;28;20429;-69
2022/01/15 04:06:05;;;;;;;339.85;65.22;;;;;;;2.53;81.70;102597.34;5045469;28;20108;-68
2022/01/15 04:08:31;;;;;;;315.23;94.57;;;;;;;2.55;81.89;102599.97;5026663;28;20103;-68
2022/01/15 04:10:58;;;;;;;173.63;121.43;;;;;;;2.73;81.46;102608.78;5029923;28;20045;-68
2022/01/15 04:13:24;;;;;;;218.23;153.32;;;;;;;2.79;81.04;102611.44;5048584;28;20037;-68
2022/01/15 04:15:53;;;;;;;143.15;130.45;;;;;;;2.93;80.50;102602.06;5065268;28;20044;-68
2022/01/15 04:18:20;;;;;;;167.13;154.80;;;;;;;2.99;80.59;102601.28;5066550;28;20774;-69
2022/01/15 04:20:47;;;;;;;286.88;148.23;;;;;;;3.04;80.11;102593.50;5049162;28;20770;-68
2022/01/15 04:23:13;;;;;;;140.85;127.75;;;;;;;2.98;80.86;102596.94;5047148;28;20094;-68
2022/01/15 04:25:40;;;;;;;150.05;135.10;;;;;;;2.97;80.87;102596.91;5043959;28;20060;-68
2022/01/15 04:28:09;;;;;;;252.25;132.80;;;;;;;2.91;81.06;102589.97;5060391;28;20048;-68
2022/01/15 04:30:36;;;;;;;201.68;182.55;;;;;;;3.11;80.51;102587.53;5060349;28;20048;-69
2022/01/15 04:33:04;;;;;;;147.10;133.55;;;;;;;3.06;80.39;102578.84;5057385;28;20045;-69
2022/01/15 04:35:30;;;;;;;211.48;143.32;;;;;;;2.88;80.95;102580.41;5049065;28;20072;-68
2022/01/15 04:38:03;;;;;;;325.73;129.85;;;;;;;2.91;80.90;102575.28;5041810;28;20067;-68
2022/01/15 04:40:29;;;;;;;312.85;165.25;;;;;;;2.85;80.77;102588.16;5053160;28;20448;-68
2022/01/15 04:42:56;;;;;;;359.85;146.13;;;;;;;3.08;80.28;102584.91;5052184;28;20186;-68
2022/01/15 04:45:22;;;;;;;365.15;191.02;;;;;;;3.09;80.55;102578.88;5043363;28;20509;-68
2022/01/15 04:47:48;;;;;;;403.77;154.57;;;;;;;2.94;80.78;102582.22;5054251;28;20068;-67
2022/01/15 04:50:18;;;;;;;311.85;108.55;;;;;;;2.94;80.84;102584.81;5033370;28;20061;-68
2022/01/15 04:52:45;;;;;;;139.38;127.07;;;;;;;3.04;80.84;102575.38;5053034;28;20040;-68
2022/01/15 04:55:13;;;;;;;150.50;135.82;;;;;;;3.14;80.34;102582.38;5061636;28;20044;-68
2022/01/15 04:57:40;;;;;;;592.53;196.43;;;;;;;2.92;80.62;102584.78;5038746;28;20046;-68
2022/01/15 05:00:10;;;;;;;455.92;113.10;;;;;;;2.86;80.86;102576.97;5052370;28;20098;-68
2022/01/15 05:02:36;;;;;;;204.02;100.15;;;;;;;2.86;80.87;102582.13;5049949;28;20390;-68
2022/01/15 05:05:03;;;;;;;311.05;102.32;;;;;;;2.92;80.72;102587.38;5048673;28;20555;-68
2022/01/15 05:07:31;;;;;;;343.15;94.10;;;;;;;3.02;80.57;102585.75;5047181;28;20133;-68
2022/01/15 05:09:57;;;;;;;354.48;86.65;;;;;;;2.88;79.98;102598.56;5048675;28;20045;-68
2022/01/15 05:12:28;;;;;;;341.38;60.15;;;;;;;2.90;80.39;102591.69;5047245;28;20059;-68
2022/01/15 05:14:56;;;;;;;379.85;73.13;;;;;;;2.86;79.90;102600.28;5038431;28;20457;-68
2022/01/15 05:17:23;;;;;;;430.77;52.80;;;;;;;2.64;80.40;102593.16;5040341;28;20049;-68
2022/01/15 05:19:49;;;;;;;170.75;57.45;;;;;;;2.63;80.56;102601.75;5033236;28;20045;-69
2022/01/15 05:22:16;;;;;;;185.55;60.45;;;;;;;2.68;80.71;102602.69;5038577;28;20065;-68
2022/01/15 05:24:44;;;;;;;217.27;55.15;;;;;;;2.61;80.31;102608.66;5031284;28;20657;-68
2022/01/15 05:27:10;;;;;;;436.00;59.08;;;;;;;2.48;80.05;102611.94;5042415;28;20041;-68
2022/01/15 05:29:36;;;;;;;189.43;42.58;;;;;;;2.54;80.43;102612.03;5041563;28;20050;-68
2022/01/15 05:32:03;;;;;;;313.05;52.15;;;;;;;2.55;79.81;102607.72;5036501;28;20096;-68
2022/01/15 05:34:30;;;;;;;193.23;49.78;;;;;;;2.64;79.98;102608.69;5057555;28;20102;-68
2022/01/15 05:36:56;;;;;;;148.65;61.78;;;;;;;2.59;80.03;102617.28;5050428;28;20040;-68
2022/01/15 05:39:22;;;;;;;196.95;46.00;;;;;;;2.59;79.82;102615.53;5051945;28;20049;-68
2022/01/15 05:41:50;;;;;;;150.82;42.20;;;;;;;2.19;81.14;102608.16;5044230;28;20052;-68
2022/01/15 05:44:17;;;;;;;258.40;50.60;;;;;;;2.24;81.23;102604.78;5060208;28;20098;-68
2022/01/15 05:46:44;;;;;;;404.90;86.78;;;;;;;2.21;81.48;102609.06;5044986;28;20095;-68
2022/01/15 05:49:10;;;;;;;355.00;44.90;;;;;;;2.00;81.75;102604.47;5050680;28;20062;-68
2022/01/15 05:51:37;;;;;;;338.73;100.88;;;;;;;1.54;82.25;102618.47;5062687;28;20045;-68
2022/01/15 05:54:04;;;;;;;401.70;74.70;;;;;;;1.57;82.81;102627.97;5059858;28;20595;-68
2022/01/15 05:56:31;;;;;;;366.55;42.70;;;;;;;1.42;82.83;102626.03;5054120;28;20128;-68
2022/01/15 05:58:58;;;;;;;165.23;38.10;;;;;;;1.79;82.71;102611.94;5056272;28;20045;-69
2022/01/15 06:01:25;;;;;;;283.92;43.05;;;;;;;2.04;82.16;102607.94;5046666;28;20109;-69
2022/01/15 06:03:51;;;;;;;298.25;37.63;;;;;;;1.93;81.73;102620.75;5062973;28;20045;-68
2022/01/15 06:06:18;;;;;;;165.15;34.25;;;;;;;2.27;81.00;102603.94;5057526;28;20044;-68
2022/01/15 06:08:44;;;;;;;332.80;45.88;;;;;;;2.16;80.66;102603.81;5059493;28;20053;-68
2022/01/15 06:11:11;;;;;;;366.73;35.45;;;;;;;2.03;81.46;102596.75;5044255;28;20052;-68
2022/01/15 06:13:38;;;;;;;286.83;33.72;;;;;;;2.04;80.74;102608.81;5047480;28;20040;-68
2022/01/15 06:16:06;;;;;;;171.30;31.25;;;;;;;2.13;81.02;102613.25;5041874;28;20095;-68
2022/01/15 06:18:32;;;;;;;208.05;31.05;;;;;;;2.06;81.72;102607.16;5042889;28;20098;-68
2022/01/15 06:20:58;;;;;;;71.20;29.35;;;;;;;2.07;81.91;102602.84;5065129;28;20125;-68
2022/01/15 06:23:25;;;;;;;240.50;31.83;;;;;;;2.19;81.59;102597.78;5044009;28;20489;-69
2022/01/15 06:25:51;;;;;;;65.20;27.42;;;;;;;2.25;81.58;102596.19;5039840;28;20090;-68
2022/01/15 06:28:17;;;;;;;534.83;76.90;;;;;;;2.13;81.07;102595.16;5055900;28;20471;-69
2022/01/15 06:30:44;;;;;;;390.60;43.38;;;;;;;1.87;81.98;102598.28;5057246;28;20040;-68
2022/01/15 06:33:11;;;;;;;545.30;46.65;;;;;;;1.79;81.92;102589.53;5068705;28;20044;-68
2022/01/15 06:35:38;;;;;;;195.43;33.42;;;;;;;2.02;82.02;102594.13;5060231;28;20456;-68
2022/01/15 06:38:04;;;;;;;256.52;32.80;;;;;;;1.96;82.14;102600.09;5069385;28;20566;-69
2022/01/15 06:40:31;;;;;;;384.08;36.95;;;;;;;1.87;82.29;102606.03;5055922;28;20069;-68
2022/01/15 06:42:58;;;;;;;259.20;33.10;;;;;;;1.88;82.05;102612.06;5055609;28;20059;-69
2022/01/15 06:45:24;;;;;;;104.93;36.30;;;;;;;2.10;81.91;102614.09;5051602;28;20045;-68
2022/01/15 06:47:50;;;;;;;127.47;30.45;;;;;;;2.17;81.75;102620.22;5061015;28;20045;-68
2022/01/15 06:50:18;;;;;;;129.60;31.17;;;;;;;2.25;81.56;102626.38;5054967;28;20091;-68
2022/01/15 06:52:45;;;;;;;239.15;35.95;;;;;;;2.28;81.14;102621.22;5062863;28;20413;-69
2022/01/15 06:55:12;;;;;;;129.60;32.72;;;;;;;2.31;81.24;102621.25;5059697;28;20455;-68
2022/01/15 06:57:38;;;;;;;161.10;32.67;;;;;;;2.32;81.57;102628.16;5061542;28;20098;-69
2022/01/15 07:00:06;;;;;;;53.38;29.58;;;;;;;2.30;81.77;102619.50;5058651;28;20079;-69
2022/01/15 07:02:32;;;;;;;121.32;32.33;;;;;;;2.34;81.28;102618.69;5051279;28;20104;-68
2022/01/15 07:04:59;;;;;;;130.30;30.13;;;;;;;2.42;81.26;102617.94;5047934;28;20041;-68
2022/01/15 07:07:27;;;;;;;178.77;35.35;;;;;;;2.45;80.84;102622.28;5052995;28;20072;-69
2022/01/15 07:09:53;;;;;;;318.33;36.03;;;;;;;2.44;81.25;102621.41;5058908;28;20661;-68
2022/01/15 07:12:20;;;;;;;325.00;52.58;;;;;;;2.32;81.25;102616.09;5053955;28;20049;-68
2022/01/15 07:14:46;;;;;;;261.08;39.05;;;;;;;2.13;82.07;102603.78;5058824;28;20563;-68
2022/01/15 07:17:13;;;;;;;280.60;45.47;;;;;;;2.14;81.94;102612.41;5062368;28;20110;-68
2022/01/15 07:19:39;;;;;;;186.68;38.25;;;;;;;2.24;81.88;102602.19;5054479;28;20049;-69
2022/01/15 07:22:07;;;;;;;210.38;39.25;;;;;;;2.39;81.80;102598.91;5047166;28;20041;-68
2022/01/15 07:24:35;;;;;;;98.22;35.40;;;;;;;2.47;81.60;102609.34;5051763;28;20509;-69
2022/01/15 07:27:02;;;;;;;82.28;40.05;;;;;;;2.18;81.88;102614.19;5058038;28;20079;-69
2022/01/15 07:29:30;;;;;;;76.38;40.47;;;;;;;2.25;81.92;102609.13;5062358;28;20043;-69
2022/01/15 07:31:57;;;;;;;98.30;42.30;;;;;;;2.54;81.66;102617.22;5065121;28;20492;-68
2022/01/15 07:34:23;;;;;;;67.03;46.53;;;;;;;2.65;81.27;102610.44;5051496;28;20099;-69
2022/01/15 07:36:53;;;;;;;53.38;43.78;;;;;;;2.75;80.97;102611.38;5060487;28;20045;-69
2022/01/15 07:39:20;;;;;;;83.05;42.00;;;;;;;2.70;81.16;102619.09;5062355;28;20048;-69
2022/01/15 07:41:48;;;;;;;92.72;44.22;;;;;;;2.80;80.91;102612.31;5067302;28;20090;-69
2022/01/15 07:44:14;;;;;;;112.05;50.28;;;;;;;2.85;81.02;102608.00;5044218;28;20044;-68
2022/01/15 07:46:41;;;;;;;68.25;38.63;;;;;;;2.92;80.46;102618.47;5055159;28;20472;-69
2022/01/15 07:49:07;;;;;;;111.65;41.28;;;;;;;2.80;80.17;102613.19;5036565;28;20053;-69
2022/01/15 07:51:34;;;;;;;110.68;47.80;;;;;;;2.81;80.91;102620.06;5029703;28;20041;-68
2022/01/15 07:54:00;;;;;;;72.75;41.35;;;;;;;2.86;80.98;102626.19;5029601;28;20425;-69
2022/01/15 07:56:26;;;;;;;122.15;46.90;;;;;;;2.80;81.09;102626.13;5045534;22;20053;-64
2022/01/15 07:58:54;;;;;;;77.28;38.72;;;;;;;2.97;80.65;102620.22;4984419;28;20051;-64
2022/01/15 08:01:20;;;;;;;61.13;36.10;;;;;;;2.93;80.57;102622.78;4985277;28;20066;-64
2022/01/15 08:03:48;;;;;;;49.20;36.67;;;;;;;3.13;79.41;102624.72;4989582;28;20421;-64
2022/01/15 08:06:15;;;;;;;46.92;34.03;;;;;;;3.15;80.05;102642.00;4987510;28;20649;-64
2022/01/15 08:08:41;;;;;;;41.08;33.67;;;;;;;3.06;79.84;102635.88;4988413;28;20050;-64
2022/01/15 08:11:08;;;;;;;56.30;37.45;;;;;;;3.05;79.04;102636.72;4989354;28;20120;-65
2022/01/15 08:13:35;;;;;;;41.63;34.38;;;;;;;3.15;78.89;102629.03;4985191;28;20462;-66
2022/01/15 08:16:04;;;;;;;41.70;37.28;;;;;;;3.08;79.61;102640.22;4969877;28;20125;-66
2022/01/15 08:18:31;;;;;;;56.45;41.17;;;;;;;3.02;79.61;102639.28;4961310;28;20057;-67
2022/01/15 08:20:58;;;;;;;43.03;38.80;;;;;;;3.13;78.93;102637.66;4987085;28;20058;-67
2022/01/15 08:23:24;;;;;;;51.08;45.70;;;;;;;3.08;79.75;102636.75;4978481;28;20081;-66
2022/01/15 08:25:51;;;;;;;60.70;44.60;;;;;;;3.09;79.50;102633.31;4982010;28;20453;-65
2022/01/15 08:28:19;;;;;;;52.30;38.92;;;;;;;3.02;80.03;102642.75;4978854;28;20046;-65
2022/01/15 08:30:45;;;;;;;57.35;42.45;;;;;;;3.04;79.68;102638.44;4968525;28;20414;-65
2022/01/15 08:33:13;;;;;;;50.42;44.55;;;;;;;3.05;79.00;102636.72;4974704;28;20046;-65
2022/01/15 08:35:39;;;;;;;53.00;40.90;;;;;;;2.95;80.09;102640.97;4989494;28;20066;-66
2022/01/15 08:38:06;;;;;;;59.50;40.75;;;;;;;3.10;80.21;102645.41;4987536;28;20109;-66
2022/01/15 08:40:33;;;;;;;57.08;41.10;;;;;;;3.16;79.97;102637.69;4974204;28;20046;-66
2022/01/15 08:43:00;;;;;;;82.15;40.63;;;;;;;3.11;80.70;102636.75;4989659;28;20042;-66
2022/01/15 08:45:27;;;;;;;56.15;47.78;;;;;;;3.12;80.09;102638.50;4968466;28;20112;-67
2022/01/15 08:47:53;;;;;;;44.97;39.28;;;;;;;3.17;80.33;102636.84;4976711;28;20149;-66
2022/01/15 08:50:22;;;;;;;43.58;37.70;;;;;;;3.20;79.57;102648.09;4969760;28;20046;-66
2022/01/15 08:52:48;;;;;;;47.92;40.90;;;;;;;3.30;80.29;102638.66;4969728;28;20601;-66
2022/01/15 08:55:16;;;;;;;55.22;39.50;;;;;;;3.53;79.46;102638.84;4969874;28;20070;-67
2022/01/15 08:57:42;;;;;;;45.53;41.13;;;;;;;3.47;79.33;102634.50;4973302;28;20046;-67
2022/01/15 09:00:11;;;;;;;59.97;43.13;;;;;;;3.36;80.09;102636.16;4973097;28;20047;-67
2022/01/15 09:02:38;;;;;;;58.83;40.58;;;;;;;3.38;80.55;102634.41;4969411;28;20508;-67
2022/01/15 09:05:05;;;;;;;44.33;39.08;;;;;;;3.44;80.22;102624.09;4960635;28;20143;-67
2022/01/15 09:07:33;;;;;;;53.92;40.03;;;;;;;3.46;80.38;102624.97;4941957;28;20044;-67
2022/01/15 09:10:00;;;;;;;49.58;43.92;;;;;;;3.38;80.56;102631.81;4967746;28;20058;-67
2022/01/15 09:12:26;;;;;;;52.17;40.90;;;;;;;3.58;80.97;102635.44;4973935;28;20047;-67
2022/01/15 09:14:58;;;;;;;68.95;60.35;;;;;;;3.74;79.87;102637.28;4973281;28;20042;-67
2022/01/15 09:17:24;;;;;;;54.55;48.15;;;;;;;3.60;80.60;102631.13;4972996;28;20058;-68
2022/01/15 09:19:51;;;;;;;66.82;54.95;;;;;;;3.87;80.41;102625.25;4970269;28;20047;-68
2022/01/15 09:22:17;;;;;;;68.68;57.38;;;;;;;3.95;79.50;102631.38;4988700;28;20443;-68
2022/01/15 09:24:46;;;;;;;62.20;55.30;;;;;;;3.72;80.76;102622.56;4992952;28;20045;-68
2022/01/15 09:30:15;;;;;;;55.85;47.53;;;;;;;3.90;80.60;102633.94;4976130;28;20074;-69
2022/01/15 09:32:44;;;;;;;55.13;49.20;;;;;;;3.98;80.61;102623.59;4964393;28;20043;-68
2022/01/15 09:35:12;;;;;;;48.47;40.70;;;;;;;4.08;80.25;102624.50;4973393;28;20038;-68
2022/01/15 09:37:38;;;;;;;47.70;38.42;;;;;;;4.14;79.96;102627.97;4972233;28;20050;-68
2022/01/15 09:40:08;;;;;;;49.45;39.08;;;;;;;4.08;80.99;102627.97;4993162;28;20572;-68
2022/01/15 09:42:38;;;;;;;50.90;45.53;;;;;;;3.99;81.86;102625.31;4986458;28;20491;-67
2022/01/15 09:45:07;;;;;;;61.00;42.88;;;;;;;3.74;84.17;102626.03;4983208;28;20050;-66
2022/01/15 09:47:34;;;;;;;52.67;46.85;;;;;;;3.60;84.64;102627.66;4979310;28;20098;-66
2022/01/15 09:50:03;;;;;;;56.78;43.22;;;;;;;3.35;86.77;102624.91;4991502;28;20050;-67
2022/01/15 09:52:31;;;;;;;60.60;55.05;;;;;;;3.46;85.38;102621.50;4985855;28;20050;-67
2022/01/15 09:54:57;;;;;;;40.75;32.67;;;;;;;3.29;86.12;102623.97;4989310;28;21678;-67
2022/01/15 09:57:25;;;;;;;47.35;42.35;;;;;;;3.57;86.20;102633.72;4985217;28;21875;-67
2022/01/15 09:59:51;;;;;;;41.85;36.05;;;;;;;3.82;84.98;102629.53;4973748;28;20046;-67
2022/01/15 10:02:20;;;;;;;51.47;34.65;;;;;;;4.02;84.31;102621.88;4966242;28;20043;-67
2022/01/15 10:04:46;;;;;;;52.33;44.33;;;;;;;3.70;84.76;102625.13;4988467;28;20049;-67
2022/01/15 10:07:15;;;;;;;62.00;55.85;;;;;;;3.84;84.23;102618.31;4987631;28;20105;-67
2022/01/15 10:09:45;;;;;;;60.40;51.22;;;;;;;4.10;83.08;102615.84;4975807;28;20049;-67
2022/01/15 10:12:23;;;;;;;65.37;60.13;;;;;;;3.91;82.98;102614.91;4988850;28;20113;-66
2022/01/15 10:14:51;;;;;;;76.20;69.95;;;;;;;3.47;85.15;102615.47;4980702;28;20117;-67
2022/01/15 10:17:23;;;;;;;54.80;49.75;;;;;;;3.81;85.85;102615.69;4984020;28;20047;-67
2022/01/15 10:19:49;;;;;;;52.00;40.67;;;;;;;3.94;84.67;102616.66;4982863;28;20089;-67
2022/01/15 10:22:18;;;;;;;52.28;47.40;;;;;;;4.22;84.03;102609.84;4984411;28;20074;-67
2022/01/15 10:24:52;;;;;;;57.25;45.85;;;;;;;4.55;83.04;102614.28;4983241;28;20073;-67
2022/01/15 10:27:21;;;;;;;55.47;49.60;;;;;;;4.96;81.54;102606.56;4952449;28;20471;-67
2022/01/15 10:30:03;;;;;;;58.58;53.45;;;;;;;5.24;80.53;102608.34;4973131;28;20062;-67
2022/01/15 10:32:31;;;;;;;62.13;56.72;;;;;;;5.21;81.05;102597.94;4966020;28;20062;-67
2022/01/15 10:34:58;;;;;;;64.18;58.42;;;;;;;5.19;81.61;102600.53;4988481;28;20486;-67
2022/01/15 10:37:28;;;;;;;66.88;60.30;;;;;;;5.57;81.69;102605.72;4985881;28;20042;-67
2022/01/15 10:39:57;;;;;;;85.10;78.20;;;;;;;5.65;79.16;102596.16;4988012;28;20050;-67
2022/01/15 10:42:24;;;;;;;86.10;79.35;;;;;;;5.74;79.21;102583.13;4985355;28;20120;-66
2022/01/15 10:44:51;;;;;;;93.80;87.43;;;;;;;5.60;79.47;102586.63;4976433;28;20050;-66
2022/01/15 10:47:20;;;;;;;79.32;72.50;;;;;;;5.79;78.80;102597.00;4985522;28;20042;-68
2022/01/15 10:49:47;;;;;;;79.80;72.68;;;;;;;5.75;78.78;102589.19;4977899;28;20078;-66
2022/01/15 10:52:17;;;;;;;70.43;64.13;;;;;;;6.11;79.08;102590.84;4965038;28;20104;-67
2022/01/15 10:54:57;;;;;;;65.80;59.93;;;;;;;6.40;79.31;102594.19;4970502;28;20506;-67
2022/01/15 10:57:26;;;;;;;55.15;49.50;;;;;;;6.76;77.75;102593.97;4972620;28;20133;-66
2022/01/15 11:00:00;;;;;;;87.38;80.10;;;;;;;6.75;76.08;102589.66;4964196;28;20515;-66
2022/01/15 11:02:28;;;;;;;74.28;68.90;;;;;;;6.55;74.53;102581.06;4969333;28;20058;-66
2022/01/15 11:04:57;;;;;;;76.22;70.65;;;;;;;6.58;74.86;102574.97;4970899;28;20038;-67
2022/01/15 11:07:24;;;;;;;74.68;67.15;;;;;;;6.46;76.66;102581.13;4962736;28;20114;-67
2022/01/15 11:09:53;;;;;;;81.20;75.07;;;;;;;6.45;75.72;102579.41;4953524;28;20097;-66
2022/01/15 11:12:20;;;;;;;101.47;94.10;;;;;;;6.00;76.38;102570.03;4952013;28;20579;-67
2022/01/15 11:14:49;;;;;;;101.40;94.25;;;;;;;6.00;77.66;102567.44;4968388;28;20109;-66
2022/01/15 11:17:16;;;;;;;76.30;70.43;;;;;;;6.16;77.04;102565.66;4970807;28;20490;-66
2022/01/15 11:19:45;;;;;;;101.00;91.85;;;;;;;6.25;76.40;102568.19;4969740;28;20051;-66
2022/01/15 11:22:19;;;;;;;101.55;94.22;;;;;;;6.18;76.33;102559.56;4969583;28;20042;-66
2022/01/15 11:24:45;;;;;;;49.83;44.63;;;;;;;5.96;75.57;102546.63;4948702;28;20047;-66
2022/01/15 11:27:12;;;;;;;100.35;92.80;;;;;;;5.90;77.25;102557.06;4951681;28;20098;-66
2022/01/15 11:29:43;;;;;;;90.93;83.35;;;;;;;6.33;76.77;102562.09;4963600;28;20592;-66